Accueil
METAR-TAF:

METAR-TAF

Aéroports :

Solenzara, France

Base aérienne 126 Solenzara

latitude: 41-55N, longitude: 009-24E, altitude: 8 m

Observation

Le bulletin a été fait il y a 33 minutes, à 03:00 UTC
Vent 6 kt de ouest
Température 16°C
Humidité 72%
Pression 1017 hPa
Visibilité 10 km ou plus
Quelques nuages à une hauteur de 1500 ft

METAR: LFKS 190300Z AUTO 27006KT 9999 FEW015 16/11 Q1017

Heure: 05:33 (03:33 UTC)

Prévision

Le bulletin a été fait il y a 13 heures et 33 minutes, à 14:00 UTC
Prévision valable du 18 à 15 UTC au 19 à 15 UTC
Vent 10 kt de sud/sud-est
Visibilité 10 km ou plus
Nuages fragmentés à une hauteur de 2000 ft
Evoluant progressivement
du 18 à 19 UTC au 18 à 21 UTC
Vent 5 kt de ouest

TAF: LFKS 181400Z 1815/1915 15010KT 9999 BKN020 BECMG 1819/1821 27005KT

Observations et prévisions météorologiques de plus de 4000 aéroports (messages METAR et TAF).

Les stations disponibles sont représentées par des disques jaunes et rouges sur la carte.

Passer la souris dessus pour voir le nom de la station.

Cliquer dessus pour voir les observations et prévisions météorologiques.

Pour changer de carte: cliquez sur les boutons verts avec une croix noire pour zoomer, sur le bouton vert avec un tiret pour effectuer un zoom arrière, ou sur les flèches vertes pour les cartes adjacentes.


METAR-TAF: